sensor_id;sensor_type;location;lat;lon;timestamp;temperature;humidity
10314;DHT22;5202;49.138;10.090;2023-06-14T00:00:45;16.10;57.80
10314;DHT22;5202;49.138;10.090;2023-06-14T00:03:16;16.10;57.70
10314;DHT22;5202;49.138;10.090;2023-06-14T00:05:46;16.10;57.60
10314;DHT22;5202;49.138;10.090;2023-06-14T00:08:15;16.10;57.40
10314;DHT22;5202;49.138;10.090;2023-06-14T00:10:45;16.10;57.30
10314;DHT22;5202;49.138;10.090;2023-06-14T00:13:14;16.10;57.20
10314;DHT22;5202;49.138;10.090;2023-06-14T00:15:42;16.10;57.20
10314;DHT22;5202;49.138;10.090;2023-06-14T00:18:10;16.10;57.40
10314;DHT22;5202;49.138;10.090;2023-06-14T00:20:42;16.00;56.70
10314;DHT22;5202;49.138;10.090;2023-06-14T00:23:11;16.00;57.00
10314;DHT22;5202;49.138;10.090;2023-06-14T00:25:39;16.00;57.20
10314;DHT22;5202;49.138;10.090;2023-06-14T00:28:08;16.00;57.40
10314;DHT22;5202;49.138;10.090;2023-06-14T00:30:36;16.00;57.60
10314;DHT22;5202;49.138;10.090;2023-06-14T00:33:04;16.00;57.70
10314;DHT22;5202;49.138;10.090;2023-06-14T00:35:33;16.00;57.90
10314;DHT22;5202;49.138;10.090;2023-06-14T00:38:04;15.90;58.40
10314;DHT22;5202;49.138;10.090;2023-06-14T00:40:33;15.80;58.30
10314;DHT22;5202;49.138;10.090;2023-06-14T00:43:02;15.70;58.80
10314;DHT22;5202;49.138;10.090;2023-06-14T00:45:30;15.70;58.70
10314;DHT22;5202;49.138;10.090;2023-06-14T00:48:04;15.70;58.20
10314;DHT22;5202;49.138;10.090;2023-06-14T00:50:34;15.70;58.40
10314;DHT22;5202;49.138;10.090;2023-06-14T00:53:04;15.70;59.00
10314;DHT22;5202;49.138;10.090;2023-06-14T00:55:33;15.70;58.90
10314;DHT22;5202;49.138;10.090;2023-06-14T00:58:02;15.60;59.30
10314;DHT22;5202;49.138;10.090;2023-06-14T01:00:30;15.60;58.80
10314;DHT22;5202;49.138;10.090;2023-06-14T01:02:58;15.60;59.80
10314;DHT22;5202;49.138;10.090;2023-06-14T01:05:29;15.50;61.20
10314;DHT22;5202;49.138;10.090;2023-06-14T01:11:01;15.30;61.50
10314;DHT22;5202;49.138;10.090;2023-06-14T01:13:33;15.30;60.90
10314;DHT22;5202;49.138;10.090;2023-06-14T01:16:03;15.10;61.10
10314;DHT22;5202;49.138;10.090;2023-06-14T01:18:32;15.00;61.80
10314;DHT22;5202;49.138;10.090;2023-06-14T01:21:02;15.00;61.80
10314;DHT22;5202;49.138;10.090;2023-06-14T01:23:33;14.70;62.20
10314;DHT22;5202;49.138;10.090;2023-06-14T01:26:02;14.90;62.60
10314;DHT22;5202;49.138;10.090;2023-06-14T01:28:31;14.80;63.20
10314;DHT22;5202;49.138;10.090;2023-06-14T01:31:02;14.80;63.00
10314;DHT22;5202;49.138;10.090;2023-06-14T01:33:33;14.70;63.20
10314;DHT22;5202;49.138;10.090;2023-06-14T01:36:05;14.70;63.40
10314;DHT22;5202;49.138;10.090;2023-06-14T01:38:37;14.80;64.40
10314;DHT22;5202;49.138;10.090;2023-06-14T01:41:06;14.50;64.50
10314;DHT22;5202;49.138;10.090;2023-06-14T01:43:35;14.40;65.20
10314;DHT22;5202;49.138;10.090;2023-06-14T01:46:05;14.30;65.70
10314;DHT22;5202;49.138;10.090;2023-06-14T01:48:34;14.20;65.80
10314;DHT22;5202;49.138;10.090;2023-06-14T01:51:03;14.20;66.30
10314;DHT22;5202;49.138;10.090;2023-06-14T01:53:31;14.20;67.00
10314;DHT22;5202;49.138;10.090;2023-06-14T01:56:01;14.10;67.00
10314;DHT22;5202;49.138;10.090;2023-06-14T01:59:18;14.10;67.10
10314;DHT22;5202;49.138;10.090;2023-06-14T02:01:56;14.10;67.00
10314;DHT22;5202;49.138;10.090;2023-06-14T02:04:24;14.00;67.90
10314;DHT22;5202;49.138;10.090;2023-06-14T02:07:03;13.80;68.40
10314;DHT22;5202;49.138;10.090;2023-06-14T02:09:33;13.60;69.20
10314;DHT22;5202;49.138;10.090;2023-06-14T02:12:03;13.50;69.60
10314;DHT22;5202;49.138;10.090;2023-06-14T02:14:31;13.30;70.60
10314;DHT22;5202;49.138;10.090;2023-06-14T02:17:00;13.30;71.20
10314;DHT22;5202;49.138;10.090;2023-06-14T02:19:28;13.30;71.60
10314;DHT22;5202;49.138;10.090;2023-06-14T02:21:57;13.20;71.60
10314;DHT22;5202;49.138;10.090;2023-06-14T02:24:25;13.30;71.60
10314;DHT22;5202;49.138;10.090;2023-06-14T02:26:53;13.30;72.00
10314;DHT22;5202;49.138;10.090;2023-06-14T02:29:23;13.30;71.90
10314;DHT22;5202;49.138;10.090;2023-06-14T02:31:51;13.30;72.00
10314;DHT22;5202;49.138;10.090;2023-06-14T02:34:20;13.10;72.40
10314;DHT22;5202;49.138;10.090;2023-06-14T02:36:48;13.00;72.20
10314;DHT22;5202;49.138;10.090;2023-06-14T02:39:17;12.90;72.10
10314;DHT22;5202;49.138;10.090;2023-06-14T02:41:47;12.90;72.10
10314;DHT22;5202;49.138;10.090;2023-06-14T02:44:18;12.80;72.60
10314;DHT22;5202;49.138;10.090;2023-06-14T02:46:48;12.80;72.50
10314;DHT22;5202;49.138;10.090;2023-06-14T02:49:17;12.70;72.60
10314;DHT22;5202;49.138;10.090;2023-06-14T02:51:45;12.60;72.90
10314;DHT22;5202;49.138;10.090;2023-06-14T02:54:14;12.60;73.40
10314;DHT22;5202;49.138;10.090;2023-06-14T02:56:42;12.60;73.60
10314;DHT22;5202;49.138;10.090;2023-06-14T02:59:11;12.60;73.40
10314;DHT22;5202;49.138;10.090;2023-06-14T03:01:40;12.60;73.60
10314;DHT22;5202;49.138;10.090;2023-06-14T03:04:14;12.50;73.80
10314;DHT22;5202;49.138;10.090;2023-06-14T03:06:43;12.40;74.20
10314;DHT22;5202;49.138;10.090;2023-06-14T03:09:19;12.30;74.50
10314;DHT22;5202;49.138;10.090;2023-06-14T03:11:48;12.20;75.00
10314;DHT22;5202;49.138;10.090;2023-06-14T03:14:17;12.20;75.00
10314;DHT22;5202;49.138;10.090;2023-06-14T03:16:46;12.20;75.00
10314;DHT22;5202;49.138;10.090;2023-06-14T03:19:19;12.10;75.00
10314;DHT22;5202;49.138;10.090;2023-06-14T03:21:48;12.00;75.40
10314;DHT22;5202;49.138;10.090;2023-06-14T03:24:29;12.00;75.60
10314;DHT22;5202;49.138;10.090;2023-06-14T03:26:59;11.90;75.80
10314;DHT22;5202;49.138;10.090;2023-06-14T03:29:28;11.90;75.80
10314;DHT22;5202;49.138;10.090;2023-06-14T03:31:58;11.90;76.20
10314;DHT22;5202;49.138;10.090;2023-06-14T03:34:37;11.90;76.50
10314;DHT22;5202;49.138;10.090;2023-06-14T03:37:08;11.80;76.60
10314;DHT22;5202;49.138;10.090;2023-06-14T03:39:37;11.90;76.60
10314;DHT22;5202;49.138;10.090;2023-06-14T03:42:16;11.90;77.20
10314;DHT22;5202;49.138;10.090;2023-06-14T03:44:45;11.80;77.40
10314;DHT22;5202;49.138;10.090;2023-06-14T03:47:14;11.80;77.00
10314;DHT22;5202;49.138;10.090;2023-06-14T03:49:44;11.80;77.50
10314;DHT22;5202;49.138;10.090;2023-06-14T03:52:13;11.80;77.60
10314;DHT22;5202;49.138;10.090;2023-06-14T03:54:45;11.80;77.40
10314;DHT22;5202;49.138;10.090;2023-06-14T03:57:18;11.70;77.50
10314;DHT22;5202;49.138;10.090;2023-06-14T03:59:48;11.80;78.30
10314;DHT22;5202;49.138;10.090;2023-06-14T04:02:18;11.90;78.70
10314;DHT22;5202;49.138;10.090;2023-06-14T04:08:32;12.30;78.40
10314;DHT22;5202;49.138;10.090;2023-06-14T04:11:01;12.40;78.00
10314;DHT22;5202;49.138;10.090;2023-06-14T04:13:30;12.40;78.20
10314;DHT22;5202;49.138;10.090;2023-06-14T04:15:58;12.50;78.40
10314;DHT22;5202;49.138;10.090;2023-06-14T04:18:32;12.50;78.10
10314;DHT22;5202;49.138;10.090;2023-06-14T04:21:00;12.60;78.60
10314;DHT22;5202;49.138;10.090;2023-06-14T04:23:29;12.60;78.60
10314;DHT22;5202;49.138;10.090;2023-06-14T04:26:02;12.70;79.00
10314;DHT22;5202;49.138;10.090;2023-06-14T04:28:31;12.80;79.20
10314;DHT22;5202;49.138;10.090;2023-06-14T04:31:04;12.80;79.20
10314;DHT22;5202;49.138;10.090;2023-06-14T04:33:35;12.90;79.40
10314;DHT22;5202;49.138;10.090;2023-06-14T04:36:15;13.00;79.70
10314;DHT22;5202;49.138;10.090;2023-06-14T04:38:46;13.10;79.40
10314;DHT22;5202;49.138;10.090;2023-06-14T04:41:17;13.20;78.40
10314;DHT22;5202;49.138;10.090;2023-06-14T04:43:46;13.40;77.30
10314;DHT22;5202;49.138;10.090;2023-06-14T04:46:16;13.50;76.70
10314;DHT22;5202;49.138;10.090;2023-06-14T04:48:45;13.70;76.70
10314;DHT22;5202;49.138;10.090;2023-06-14T04:51:16;13.80;75.60
10314;DHT22;5202;49.138;10.090;2023-06-14T04:53:48;13.90;75.40
10314;DHT22;5202;49.138;10.090;2023-06-14T04:56:18;14.10;75.30
10314;DHT22;5202;49.138;10.090;2023-06-14T04:58:48;14.20;74.90
10314;DHT22;5202;49.138;10.090;2023-06-14T05:01:17;14.20;74.60
10314;DHT22;5202;49.138;10.090;2023-06-14T05:03:45;14.30;75.20
10314;DHT22;5202;49.138;10.090;2023-06-14T05:06:16;14.50;74.90
10314;DHT22;5202;49.138;10.090;2023-06-14T05:08:45;14.60;74.60
10314;DHT22;5202;49.138;10.090;2023-06-14T05:11:14;14.70;74.20
10314;DHT22;5202;49.138;10.090;2023-06-14T05:13:45;14.90;74.30
10314;DHT22;5202;49.138;10.090;2023-06-14T05:16:13;15.00;74.60
10314;DHT22;5202;49.138;10.090;2023-06-14T05:18:46;15.10;73.60
10314;DHT22;5202;49.138;10.090;2023-06-14T05:21:14;15.20;73.20
10314;DHT22;5202;49.138;10.090;2023-06-14T05:23:45;15.30;73.10
10314;DHT22;5202;49.138;10.090;2023-06-14T05:26:13;15.40;71.50
10314;DHT22;5202;49.138;10.090;2023-06-14T05:28:41;15.50;71.50
10314;DHT22;5202;49.138;10.090;2023-06-14T05:31:11;15.60;71.50
10314;DHT22;5202;49.138;10.090;2023-06-14T05:33:39;15.80;71.60
10314;DHT22;5202;49.138;10.090;2023-06-14T05:36:07;15.90;71.00
10314;DHT22;5202;49.138;10.090;2023-06-14T05:38:36;16.00;71.30
10314;DHT22;5202;49.138;10.090;2023-06-14T05:41:04;16.20;71.10
10314;DHT22;5202;49.138;10.090;2023-06-14T05:43:32;16.20;70.20
10314;DHT22;5202;49.138;10.090;2023-06-14T05:46:00;16.20;70.20
10314;DHT22;5202;49.138;10.090;2023-06-14T05:48:30;16.10;69.50
10314;DHT22;5202;49.138;10.090;2023-06-14T05:50:59;16.20;69.60
10314;DHT22;5202;49.138;10.090;2023-06-14T05:53:27;16.30;70.10
10314;DHT22;5202;49.138;10.090;2023-06-14T05:55:56;16.40;69.90
10314;DHT22;5202;49.138;10.090;2023-06-14T05:58:24;16.50;69.70
10314;DHT22;5202;49.138;10.090;2023-06-14T06:00:52;16.60;70.10
10314;DHT22;5202;49.138;10.090;2023-06-14T06:03:21;16.70;69.10
10314;DHT22;5202;49.138;10.090;2023-06-14T06:06:16;16.80;69.90
10314;DHT22;5202;49.138;10.090;2023-06-14T06:08:45;16.70;69.80
10314;DHT22;5202;49.138;10.090;2023-06-14T06:11:13;16.70;70.60
10314;DHT22;5202;49.138;10.090;2023-06-14T06:13:42;16.90;71.10
10314;DHT22;5202;49.138;10.090;2023-06-14T06:16:10;16.90;70.20
10314;DHT22;5202;49.138;10.090;2023-06-14T06:18:38;17.00;70.50
10314;DHT22;5202;49.138;10.090;2023-06-14T06:21:08;17.00;69.00
10314;DHT22;5202;49.138;10.090;2023-06-14T06:23:38;17.00;69.40
10314;DHT22;5202;49.138;10.090;2023-06-14T06:26:06;16.90;69.20
10314;DHT22;5202;49.138;10.090;2023-06-14T06:28:34;17.00;69.40
10314;DHT22;5202;49.138;10.090;2023-06-14T06:31:03;16.90;69.70
10314;DHT22;5202;49.138;10.090;2023-06-14T06:33:32;16.90;70.90
10314;DHT22;5202;49.138;10.090;2023-06-14T06:36:00;17.10;71.30
10314;DHT22;5202;49.138;10.090;2023-06-14T06:38:29;17.30;71.20
10314;DHT22;5202;49.138;10.090;2023-06-14T06:40:59;17.40;70.80
10314;DHT22;5202;49.138;10.090;2023-06-14T06:43:27;17.60;70.80
10314;DHT22;5202;49.138;10.090;2023-06-14T06:45:57;17.80;71.00
10314;DHT22;5202;49.138;10.090;2023-06-14T06:48:26;17.90;71.30
10314;DHT22;5202;49.138;10.090;2023-06-14T06:50:55;18.00;70.30
10314;DHT22;5202;49.138;10.090;2023-06-14T06:53:23;18.10;68.80
10314;DHT22;5202;49.138;10.090;2023-06-14T06:56:07;18.20;69.40
10314;DHT22;5202;49.138;10.090;2023-06-14T06:58:35;18.20;69.10
10314;DHT22;5202;49.138;10.090;2023-06-14T07:01:03;18.30;70.00
10314;DHT22;5202;49.138;10.090;2023-06-14T07:03:32;18.50;69.90
10314;DHT22;5202;49.138;10.090;2023-06-14T07:06:00;18.50;69.80
10314;DHT22;5202;49.138;10.090;2023-06-14T07:08:29;18.60;70.60
10314;DHT22;5202;49.138;10.090;2023-06-14T07:10:57;18.80;70.00
10314;DHT22;5202;49.138;10.090;2023-06-14T07:13:26;19.00;67.60
10314;DHT22;5202;49.138;10.090;2023-06-14T07:15:57;19.20;66.10
10314;DHT22;5202;49.138;10.090;2023-06-14T07:18:28;19.30;67.50
10314;DHT22;5202;49.138;10.090;2023-06-14T07:20:56;19.40;66.80
10314;DHT22;5202;49.138;10.090;2023-06-14T07:23:25;19.50;67.30
10314;DHT22;5202;49.138;10.090;2023-06-14T07:25:53;19.50;66.20
10314;DHT22;5202;49.138;10.090;2023-06-14T07:28:21;19.70;65.40
10314;DHT22;5202;49.138;10.090;2023-06-14T07:30:51;19.80;67.00
10314;DHT22;5202;49.138;10.090;2023-06-14T07:33:19;19.70;64.90
10314;DHT22;5202;49.138;10.090;2023-06-14T07:35:48;19.50;65.60
10314;DHT22;5202;49.138;10.090;2023-06-14T07:38:16;19.50;65.60
10314;DHT22;5202;49.138;10.090;2023-06-14T07:40:45;19.80;67.80
10314;DHT22;5202;49.138;10.090;2023-06-14T07:43:13;20.10;66.00
10314;DHT22;5202;49.138;10.090;2023-06-14T07:45:41;20.10;64.80
10314;DHT22;5202;49.138;10.090;2023-06-14T07:48:29;20.20;63.40
10314;DHT22;5202;49.138;10.090;2023-06-14T07:50:59;20.40;63.40
10314;DHT22;5202;49.138;10.090;2023-06-14T07:53:28;20.50;61.50
10314;DHT22;5202;49.138;10.090;2023-06-14T07:55:57;20.50;64.50
10314;DHT22;5202;49.138;10.090;2023-06-14T07:58:26;20.70;62.40
10314;DHT22;5202;49.138;10.090;2023-06-14T08:00:55;20.90;61.60
10314;DHT22;5202;49.138;10.090;2023-06-14T08:03:23;21.00;60.30
10314;DHT22;5202;49.138;10.090;2023-06-14T08:05:53;21.00;59.50
10314;DHT22;5202;49.138;10.090;2023-06-14T08:08:21;21.10;62.00
10314;DHT22;5202;49.138;10.090;2023-06-14T08:10:50;21.10;61.90
10314;DHT22;5202;49.138;10.090;2023-06-14T08:13:18;21.10;61.80
10314;DHT22;5202;49.138;10.090;2023-06-14T08:15:46;21.20;61.20
10314;DHT22;5202;49.138;10.090;2023-06-14T08:18:15;21.10;59.90
10314;DHT22;5202;49.138;10.090;2023-06-14T08:20:43;21.10;61.20
10314;DHT22;5202;49.138;10.090;2023-06-14T08:23:13;21.20;61.20
10314;DHT22;5202;49.138;10.090;2023-06-14T08:25:42;21.30;61.70
10314;DHT22;5202;49.138;10.090;2023-06-14T08:28:11;21.50;61.70
10314;DHT22;5202;49.138;10.090;2023-06-14T08:30:39;21.40;61.30
10314;DHT22;5202;49.138;10.090;2023-06-14T08:33:07;21.60;61.40
10314;DHT22;5202;49.138;10.090;2023-06-14T08:35:43;21.70;60.20
10314;DHT22;5202;49.138;10.090;2023-06-14T08:38:13;21.80;58.50
10314;DHT22;5202;49.138;10.090;2023-06-14T08:40:42;21.70;57.90
10314;DHT22;5202;49.138;10.090;2023-06-14T08:43:11;21.80;58.20
10314;DHT22;5202;49.138;10.090;2023-06-14T08:45:39;21.90;58.00
10314;DHT22;5202;49.138;10.090;2023-06-14T08:48:08;21.90;58.80
10314;DHT22;5202;49.138;10.090;2023-06-14T08:50:38;21.90;58.90
10314;DHT22;5202;49.138;10.090;2023-06-14T08:53:13;21.90;58.30
10314;DHT22;5202;49.138;10.090;2023-06-14T08:55:46;21.90;57.50
10314;DHT22;5202;49.138;10.090;2023-06-14T08:58:15;21.90;57.90
10314;DHT22;5202;49.138;10.090;2023-06-14T09:00:44;22.10;59.30
10314;DHT22;5202;49.138;10.090;2023-06-14T09:03:13;22.10;58.20
10314;DHT22;5202;49.138;10.090;2023-06-14T09:05:42;22.30;59.30
10314;DHT22;5202;49.138;10.090;2023-06-14T09:08:13;22.40;57.20
10314;DHT22;5202;49.138;10.090;2023-06-14T09:10:43;22.50;58.60
10314;DHT22;5202;49.138;10.090;2023-06-14T09:13:12;22.70;58.10
10314;DHT22;5202;49.138;10.090;2023-06-14T09:15:40;22.80;57.70
10314;DHT22;5202;49.138;10.090;2023-06-14T09:18:09;22.90;57.10
10314;DHT22;5202;49.138;10.090;2023-06-14T09:20:37;23.00;59.10
10314;DHT22;5202;49.138;10.090;2023-06-14T09:23:05;23.00;57.50
10314;DHT22;5202;49.138;10.090;2023-06-14T09:25:43;23.00;57.80
10314;DHT22;5202;49.138;10.090;2023-06-14T09:28:13;23.10;57.60
10314;DHT22;5202;49.138;10.090;2023-06-14T09:30:41;23.30;56.40
10314;DHT22;5202;49.138;10.090;2023-06-14T09:33:10;23.30;56.10
10314;DHT22;5202;49.138;10.090;2023-06-14T09:35:39;23.40;56.60
10314;DHT22;5202;49.138;10.090;2023-06-14T09:38:08;23.50;56.70
10314;DHT22;5202;49.138;10.090;2023-06-14T09:40:36;23.50;56.00
10314;DHT22;5202;49.138;10.090;2023-06-14T09:43:07;23.40;54.90
10314;DHT22;5202;49.138;10.090;2023-06-14T09:45:38;23.30;54.90
10314;DHT22;5202;49.138;10.090;2023-06-14T09:48:08;23.40;56.50
10314;DHT22;5202;49.138;10.090;2023-06-14T09:50:37;23.50;55.80
10314;DHT22;5202;49.138;10.090;2023-06-14T09:53:07;23.70;55.40
10314;DHT22;5202;49.138;10.090;2023-06-14T09:55:40;23.90;55.70
10314;DHT22;5202;49.138;10.090;2023-06-14T09:58:10;23.90;55.70
10314;DHT22;5202;49.138;10.090;2023-06-14T10:00:40;24.20;54.20
10314;DHT22;5202;49.138;10.090;2023-06-14T10:03:14;24.30;55.50
10314;DHT22;5202;49.138;10.090;2023-06-14T10:05:50;23.80;53.60
10314;DHT22;5202;49.138;10.090;2023-06-14T10:08:21;23.40;53.10
10314;DHT22;5202;49.138;10.090;2023-06-14T10:10:53;23.10;54.00
10314;DHT22;5202;49.138;10.090;2023-06-14T10:13:23;23.30;54.00
10314;DHT22;5202;49.138;10.090;2023-06-14T10:16:00;23.60;55.50
10314;DHT22;5202;49.138;10.090;2023-06-14T10:18:41;23.90;55.80
10314;DHT22;5202;49.138;10.090;2023-06-14T10:21:18;24.00;53.50
10314;DHT22;5202;49.138;10.090;2023-06-14T10:23:50;24.10;53.00
10314;DHT22;5202;49.138;10.090;2023-06-14T10:26:23;24.30;51.90
10314;DHT22;5202;49.138;10.090;2023-06-14T10:29:01;24.20;51.50
10314;DHT22;5202;49.138;10.090;2023-06-14T10:31:43;24.30;50.30
10314;DHT22;5202;49.138;10.090;2023-06-14T10:34:14;24.50;50.90
10314;DHT22;5202;49.138;10.090;2023-06-14T10:37:05;24.70;49.30
10314;DHT22;5202;49.138;10.090;2023-06-14T10:39:39;24.90;52.20
10314;DHT22;5202;49.138;10.090;2023-06-14T10:42:08;24.90;49.90
10314;DHT22;5202;49.138;10.090;2023-06-14T10:44:43;24.60;48.80
10314;DHT22;5202;49.138;10.090;2023-06-14T10:47:25;24.30;50.00
10314;DHT22;5202;49.138;10.090;2023-06-14T10:49:57;24.30;48.40
10314;DHT22;5202;49.138;10.090;2023-06-14T10:52:33;24.30;49.50
10314;DHT22;5202;49.138;10.090;2023-06-14T10:55:08;24.10;50.20
10314;DHT22;5202;49.138;10.090;2023-06-14T10:57:40;23.90;51.00
10314;DHT22;5202;49.138;10.090;2023-06-14T11:00:21;23.60;50.70
10314;DHT22;5202;49.138;10.090;2023-06-14T11:03:23;23.30;50.80
10314;DHT22;5202;49.138;10.090;2023-06-14T11:06:12;23.10;52.00
10314;DHT22;5202;49.138;10.090;2023-06-14T11:12:03;23.20;51.60
10314;DHT22;5202;49.138;10.090;2023-06-14T11:14:32;23.20;50.10
10314;DHT22;5202;49.138;10.090;2023-06-14T11:17:02;23.20;50.10
10314;DHT22;5202;49.138;10.090;2023-06-14T11:19:30;23.20;52.20
10314;DHT22;5202;49.138;10.090;2023-06-14T11:21:59;23.20;51.60
10314;DHT22;5202;49.138;10.090;2023-06-14T11:24:27;23.10;51.60
10314;DHT22;5202;49.138;10.090;2023-06-14T11:26:56;23.10;50.70
10314;DHT22;5202;49.138;10.090;2023-06-14T11:29:25;23.00;50.70
10314;DHT22;5202;49.138;10.090;2023-06-14T11:31:53;23.10;49.90
10314;DHT22;5202;49.138;10.090;2023-06-14T11:34:24;23.30;51.50
10314;DHT22;5202;49.138;10.090;2023-06-14T11:36:53;23.70;50.30
10314;DHT22;5202;49.138;10.090;2023-06-14T11:39:24;24.00;49.10
10314;DHT22;5202;49.138;10.090;2023-06-14T11:41:54;24.10;51.40
10314;DHT22;5202;49.138;10.090;2023-06-14T11:44:22;24.20;50.90
10314;DHT22;5202;49.138;10.090;2023-06-14T11:46:51;24.30;52.00
10314;DHT22;5202;49.138;10.090;2023-06-14T11:49:20;24.40;51.10
10314;DHT22;5202;49.138;10.090;2023-06-14T11:51:49;24.40;50.60
10314;DHT22;5202;49.138;10.090;2023-06-14T11:54:18;24.30;50.00
10314;DHT22;5202;49.138;10.090;2023-06-14T11:56:46;24.30;50.60
10314;DHT22;5202;49.138;10.090;2023-06-14T11:59:14;24.20;51.40
10314;DHT22;5202;49.138;10.090;2023-06-14T12:01:43;24.10;49.90
10314;DHT22;5202;49.138;10.090;2023-06-14T12:04:14;24.00;50.20
10314;DHT22;5202;49.138;10.090;2023-06-14T12:06:42;24.30;51.60
10314;DHT22;5202;49.138;10.090;2023-06-14T12:09:12;24.40;51.90
10314;DHT22;5202;49.138;10.090;2023-06-14T12:11:44;24.30;49.50
10314;DHT22;5202;49.138;10.090;2023-06-14T12:14:12;24.00;47.70
10314;DHT22;5202;49.138;10.090;2023-06-14T12:16:40;24.00;50.10
10314;DHT22;5202;49.138;10.090;2023-06-14T12:19:12;24.10;50.60
10314;DHT22;5202;49.138;10.090;2023-06-14T12:21:42;24.10;50.30
10314;DHT22;5202;49.138;10.090;2023-06-14T12:24:12;24.10;49.80
10314;DHT22;5202;49.138;10.090;2023-06-14T12:26:41;24.30;49.90
10314;DHT22;5202;49.138;10.090;2023-06-14T12:29:10;24.40;50.70
10314;DHT22;5202;49.138;10.090;2023-06-14T12:31:40;24.30;48.90
10314;DHT22;5202;49.138;10.090;2023-06-14T12:34:09;24.20;49.50
10314;DHT22;5202;49.138;10.090;2023-06-14T12:36:38;24.10;48.90
10314;DHT22;5202;49.138;10.090;2023-06-14T12:39:12;23.90;49.20
10314;DHT22;5202;49.138;10.090;2023-06-14T12:41:41;23.90;50.50
10314;DHT22;5202;49.138;10.090;2023-06-14T12:44:10;23.80;50.10
10314;DHT22;5202;49.138;10.090;2023-06-14T12:46:38;23.80;48.70
10314;DHT22;5202;49.138;10.090;2023-06-14T12:49:09;23.90;49.40
10314;DHT22;5202;49.138;10.090;2023-06-14T12:51:38;24.00;48.10
10314;DHT22;5202;49.138;10.090;2023-06-14T12:54:07;24.10;49.30
10314;DHT22;5202;49.138;10.090;2023-06-14T12:56:37;24.10;50.50
10314;DHT22;5202;49.138;10.090;2023-06-14T12:59:05;24.20;50.30
10314;DHT22;5202;49.138;10.090;2023-06-14T13:01:34;24.20;49.10
10314;DHT22;5202;49.138;10.090;2023-06-14T13:04:02;24.30;49.80
10314;DHT22;5202;49.138;10.090;2023-06-14T13:06:31;24.30;50.10
10314;DHT22;5202;49.138;10.090;2023-06-14T13:09:00;24.40;49.80
10314;DHT22;5202;49.138;10.090;2023-06-14T13:11:28;24.40;47.50
10314;DHT22;5202;49.138;10.090;2023-06-14T13:13:58;24.40;48.60
10314;DHT22;5202;49.138;10.090;2023-06-14T13:16:34;24.50;50.10
10314;DHT22;5202;49.138;10.090;2023-06-14T13:19:02;24.20;49.30
10314;DHT22;5202;49.138;10.090;2023-06-14T13:21:31;24.10;50.20
10314;DHT22;5202;49.138;10.090;2023-06-14T13:23:59;24.20;50.10
10314;DHT22;5202;49.138;10.090;2023-06-14T13:26:27;24.40;47.70
10314;DHT22;5202;49.138;10.090;2023-06-14T13:28:57;24.70;50.40
10314;DHT22;5202;49.138;10.090;2023-06-14T13:31:25;24.80;49.60
10314;DHT22;5202;49.138;10.090;2023-06-14T13:33:54;24.60;49.40
10314;DHT22;5202;49.138;10.090;2023-06-14T13:36:22;24.40;49.50
10314;DHT22;5202;49.138;10.090;2023-06-14T13:38:50;24.40;51.10
10314;DHT22;5202;49.138;10.090;2023-06-14T13:41:19;24.40;49.60
10314;DHT22;5202;49.138;10.090;2023-06-14T13:43:48;24.30;49.80
10314;DHT22;5202;49.138;10.090;2023-06-14T13:46:17;24.30;50.30
10314;DHT22;5202;49.138;10.090;2023-06-14T13:48:46;24.30;50.60
10314;DHT22;5202;49.138;10.090;2023-06-14T13:51:14;24.30;51.00
10314;DHT22;5202;49.138;10.090;2023-06-14T13:53:46;24.30;49.40
10314;DHT22;5202;49.138;10.090;2023-06-14T13:56:16;24.40;50.30
10314;DHT22;5202;49.138;10.090;2023-06-14T13:58:52;24.50;50.10
10314;DHT22;5202;49.138;10.090;2023-06-14T14:01:22;24.50;50.90
10314;DHT22;5202;49.138;10.090;2023-06-14T14:03:56;24.50;49.90
10314;DHT22;5202;49.138;10.090;2023-06-14T14:06:30;24.50;52.00
10314;DHT22;5202;49.138;10.090;2023-06-14T14:08:58;24.60;51.60
10314;DHT22;5202;49.138;10.090;2023-06-14T14:11:27;24.40;51.80
10314;DHT22;5202;49.138;10.090;2023-06-14T14:13:55;24.40;51.60
10314;DHT22;5202;49.138;10.090;2023-06-14T14:16:26;24.50;49.30
10314;DHT22;5202;49.138;10.090;2023-06-14T14:18:54;24.80;51.60
10314;DHT22;5202;49.138;10.090;2023-06-14T14:21:23;24.90;49.90
10314;DHT22;5202;49.138;10.090;2023-06-14T14:23:52;24.90;50.30
10314;DHT22;5202;49.138;10.090;2023-06-14T14:26:20;24.90;50.40
10314;DHT22;5202;49.138;10.090;2023-06-14T14:28:48;24.90;48.80
10314;DHT22;5202;49.138;10.090;2023-06-14T14:31:17;24.70;47.00
10314;DHT22;5202;49.138;10.090;2023-06-14T14:33:47;24.70;49.20
10314;DHT22;5202;49.138;10.090;2023-06-14T14:36:16;24.80;50.90
10314;DHT22;5202;49.138;10.090;2023-06-14T14:38:44;24.90;50.60
10314;DHT22;5202;49.138;10.090;2023-06-14T14:41:14;25.20;51.10
10314;DHT22;5202;49.138;10.090;2023-06-14T14:43:42;25.30;50.00
10314;DHT22;5202;49.138;10.090;2023-06-14T14:46:10;25.40;50.80
10314;DHT22;5202;49.138;10.090;2023-06-14T14:48:38;25.30;47.40
10314;DHT22;5202;49.138;10.090;2023-06-14T14:51:08;25.20;49.10
10314;DHT22;5202;49.138;10.090;2023-06-14T14:53:36;25.30;47.60
10314;DHT22;5202;49.138;10.090;2023-06-14T14:56:05;25.30;49.40
10314;DHT22;5202;49.138;10.090;2023-06-14T14:58:33;25.30;49.60
10314;DHT22;5202;49.138;10.090;2023-06-14T15:01:01;25.10;50.40
10314;DHT22;5202;49.138;10.090;2023-06-14T15:03:29;24.80;50.70
10314;DHT22;5202;49.138;10.090;2023-06-14T15:06:07;24.40;50.40
10314;DHT22;5202;49.138;10.090;2023-06-14T15:08:35;24.30;51.30
10314;DHT22;5202;49.138;10.090;2023-06-14T15:11:04;24.20;51.20
10314;DHT22;5202;49.138;10.090;2023-06-14T15:13:33;24.00;52.60
10314;DHT22;5202;49.138;10.090;2023-06-14T15:16:01;24.00;52.20
10314;DHT22;5202;49.138;10.090;2023-06-14T15:18:29;24.10;53.00
10314;DHT22;5202;49.138;10.090;2023-06-14T15:20:58;24.10;52.00
10314;DHT22;5202;49.138;10.090;2023-06-14T15:23:28;24.10;51.90
10314;DHT22;5202;49.138;10.090;2023-06-14T15:25:57;24.00;52.00
10314;DHT22;5202;49.138;10.090;2023-06-14T15:28:25;24.00;53.20
10314;DHT22;5202;49.138;10.090;2023-06-14T15:30:55;24.10;52.70
10314;DHT22;5202;49.138;10.090;2023-06-14T15:33:24;24.00;52.80
10314;DHT22;5202;49.138;10.090;2023-06-14T15:35:52;24.00;52.00
10314;DHT22;5202;49.138;10.090;2023-06-14T15:38:21;23.90;52.40
10314;DHT22;5202;49.138;10.090;2023-06-14T15:40:51;23.80;52.50
10314;DHT22;5202;49.138;10.090;2023-06-14T15:43:19;23.90;52.80
10314;DHT22;5202;49.138;10.090;2023-06-14T15:45:50;24.00;53.80
10314;DHT22;5202;49.138;10.090;2023-06-14T15:48:18;24.10;52.00
10314;DHT22;5202;49.138;10.090;2023-06-14T15:50:46;24.20;52.30
10314;DHT22;5202;49.138;10.090;2023-06-14T15:53:15;24.20;51.40
10314;DHT22;5202;49.138;10.090;2023-06-14T15:55:43;24.20;50.80
10314;DHT22;5202;49.138;10.090;2023-06-14T15:58:13;24.30;52.10